Time;durP1;ratioP1;P1;durP2;ratioP2;P2;SDS_P1;SDS_P2;PMS_P1;PMS_P2;Temp;Humidity;BMP_temperature;BMP_pressure;BME280_temperature;BME280_humidity;BME280_pressure;Samples;Min_cycle;Max_cycle;Signal;HPM_P1;HPM_P2
2023/09/01 00:00:46;;;;;;;3.97;2.35;;;12.30;99.90;;;;;;5043089;28;20038;-51
2023/09/01 00:03:13;;;;;;;5.57;2.80;;;12.30;99.90;;;;;;5048255;28;20425;-51
2023/09/01 00:05:39;;;;;;;5.50;2.40;;;12.30;99.90;;;;;;5021449;28;20049;-50
2023/09/01 00:08:05;;;;;;;7.50;3.15;;;12.30;99.90;;;;;;5051908;28;20052;-51
2023/09/01 00:10:30;;;;;;;2.42;1.75;;;12.30;99.90;;;;;;5051990;28;20506;-53
2023/09/01 00:12:57;;;;;;;7.20;3.15;;;12.30;99.90;;;;;;5051415;28;20040;-51
2023/09/01 00:15:23;;;;;;;5.30;2.20;;;12.40;99.90;;;;;;5051540;28;20041;-50
2023/09/01 00:17:48;;;;;;;5.43;1.42;;;12.40;99.90;;;;;;5051749;28;20041;-51
2023/09/01 00:20:14;;;;;;;2.55;0.88;;;12.30;99.90;;;;;;5051632;28;20040;-51
2023/09/01 00:22:40;;;;;;;2.58;1.02;;;12.30;99.90;;;;;;5051695;28;20520;-55
2023/09/01 00:25:06;;;;;;;3.92;1.00;;;12.20;99.90;;;;;;5051483;28;20033;-52
2023/09/01 00:27:31;;;;;;;3.08;0.85;;;12.20;99.90;;;;;;5051320;28;20048;-53
2023/09/01 00:29:57;;;;;;;4.35;0.90;;;12.20;99.90;;;;;;5051020;28;20532;-53
2023/09/01 00:32:22;;;;;;;2.65;0.63;;;12.10;99.90;;;;;;5050833;28;20049;-51
2023/09/01 00:34:55;;;;;;;2.00;1.00;;;12.10;99.90;;;;;;5051301;28;20108;-50
2023/09/01 00:37:21;;;;;;;1.77;1.42;;;12.10;99.90;;;;;;5051905;28;20272;-53
2023/09/01 00:39:47;;;;;;;5.38;1.70;;;12.00;99.90;;;;;;5050329;28;20123;-52
2023/09/01 00:42:12;;;;;;;6.85;1.50;;;12.00;99.90;;;;;;5051292;28;20079;-51
2023/09/01 00:44:38;;;;;;;2.77;1.90;;;12.10;99.90;;;;;;5051395;28;20044;-52
2023/09/01 00:47:04;;;;;;;4.90;2.40;;;12.00;99.90;;;;;;5051490;28;20303;-52
2023/09/01 00:49:30;;;;;;;4.80;3.17;;;12.10;99.90;;;;;;5050479;28;20043;-53
2023/09/01 00:51:57;;;;;;;5.82;4.28;;;12.10;99.90;;;;;;5051334;28;20071;-52
2023/09/01 00:54:23;;;;;;;4.05;2.83;;;12.10;99.90;;;;;;5050851;28;20044;-52
2023/09/01 00:56:50;;;;;;;5.13;3.58;;;12.20;99.90;;;;;;5050762;28;20044;-50
2023/09/01 00:59:15;;;;;;;4.43;3.95;;;12.20;99.90;;;;;;5050088;28;20511;-51
2023/09/01 01:01:42;;;;;;;4.40;1.95;;;12.20;99.90;;;;;;5051779;28;20035;-51
2023/09/01 01:04:08;;;;;;;3.28;1.02;;;12.20;99.90;;;;;;5051307;28;20037;-50
2023/09/01 01:06:48;;;;;;;1.75;1.55;;;12.20;99.90;;;;;;5047589;28;20047;-53
2023/09/01 01:09:31;;;;;;;2.85;2.03;;;12.10;99.90;;;;;;5022799;28;20052;-53
2023/09/01 01:12:22;;;;;;;4.00;2.20;;;12.10;99.90;;;;;;5047010;28;20045;-55
2023/09/01 01:14:52;;;;;;;5.28;2.10;;;12.20;99.90;;;;;;5042517;28;20057;-50
2023/09/01 01:17:19;;;;;;;4.15;2.28;;;12.20;99.90;;;;;;5038841;28;20037;-54
2023/09/01 01:19:55;;;;;;;2.30;2.10;;;12.10;99.90;;;;;;5049769;28;20048;-51
2023/09/01 01:22:41;;;;;;;2.50;2.07;;;12.10;99.90;;;;;;5051066;28;20048;-52
2023/09/01 01:25:12;;;;;;;5.38;3.17;;;12.00;99.90;;;;;;5050341;28;20379;-52
2023/09/01 01:27:38;;;;;;;4.80;2.67;;;12.10;99.90;;;;;;5050725;28;20067;-52
2023/09/01 01:30:05;;;;;;;5.40;3.50;;;12.10;99.90;;;;;;5049064;28;20045;-50
2023/09/01 01:32:32;;;;;;;4.50;3.65;;;12.10;99.90;;;;;;5050681;28;20099;-52
2023/09/01 01:35:27;;;;;;;4.63;4.03;;;12.10;99.90;;;;;;5049758;28;20045;-53
2023/09/01 01:37:59;;;;;;;9.82;4.38;;;12.20;99.90;;;;;;5050509;28;20560;-53
2023/09/01 01:40:29;;;;;;;4.32;2.33;;;12.20;99.90;;;;;;5049065;28;20087;-52
2023/09/01 01:42:56;;;;;;;4.97;2.63;;;12.10;99.90;;;;;;5050630;28;20037;-50
2023/09/01 01:45:23;;;;;;;6.78;2.80;;;12.10;99.90;;;;;;5049913;28;20079;-52
2023/09/01 01:47:51;;;;;;;3.17;2.72;;;12.10;99.90;;;;;;5050148;28;20041;-51
2023/09/01 01:50:17;;;;;;;6.75;3.60;;;12.10;99.90;;;;;;5049483;28;20083;-53
2023/09/01 01:52:43;;;;;;;6.35;3.63;;;12.10;99.90;;;;;;5046318;28;20048;-54
2023/09/01 01:55:09;;;;;;;4.93;4.10;;;12.10;99.90;;;;;;5049225;28;20425;-55
2023/09/01 01:57:36;;;;;;;4.88;4.47;;;12.10;99.90;;;;;;5050263;28;20099;-55
2023/09/01 02:00:03;;;;;;;6.60;4.07;;;12.10;99.90;;;;;;5049618;28;20398;-51
2023/09/01 02:02:29;;;;;;;5.15;3.67;;;12.10;99.90;;;;;;5050348;28;20544;-52
2023/09/01 02:04:55;;;;;;;5.57;3.72;;;12.10;99.90;;;;;;5049297;28;20084;-55
2023/09/01 02:07:20;;;;;;;6.07;3.57;;;12.10;99.90;;;;;;5049282;28;20045;-52
2023/09/01 02:09:46;;;;;;;4.30;2.45;;;12.20;99.90;;;;;;5048708;28;20291;-51
2023/09/01 02:12:12;;;;;;;5.70;2.00;;;12.10;99.90;;;;;;5050170;28;20489;-53
2023/09/01 02:14:37;;;;;;;3.00;1.98;;;12.10;99.90;;;;;;5049657;28;20047;-55
2023/09/01 02:17:03;;;;;;;3.20;2.83;;;12.00;99.90;;;;;;5049425;28;20078;-51
2023/09/01 02:19:29;;;;;;;3.13;2.47;;;11.90;99.90;;;;;;5031039;28;20383;-50
2023/09/01 02:21:55;;;;;;;2.70;1.80;;;11.90;99.90;;;;;;5049301;28;20117;-54
2023/09/01 02:24:20;;;;;;;1.92;1.40;;;11.90;99.90;;;;;;5049914;28;20045;-51
2023/09/01 02:26:46;;;;;;;2.38;1.35;;;11.90;99.90;;;;;;5049281;28;20063;-51
2023/09/01 02:29:11;;;;;;;2.47;1.08;;;11.80;99.90;;;;;;5049103;28;20378;-50
2023/09/01 02:31:38;;;;;;;2.08;1.85;;;11.80;99.90;;;;;;5055263;28;20320;-53
2023/09/01 02:34:05;;;;;;;5.30;1.88;;;11.80;99.90;;;;;;5069832;28;20115;-52
2023/09/01 02:36:34;;;;;;;2.10;1.90;;;11.80;99.90;;;;;;5054832;28;20406;-53
2023/09/01 02:39:01;;;;;;;3.95;2.60;;;11.70;99.90;;;;;;5049263;28;20028;-50
2023/09/01 02:41:28;;;;;;;6.32;2.97;;;11.70;99.90;;;;;;5049298;28;20041;-52
2023/09/01 02:43:54;;;;;;;3.78;1.90;;;11.80;99.90;;;;;;5049589;28;20045;-51
2023/09/01 02:46:20;;;;;;;4.55;1.67;;;11.70;99.90;;;;;;5048987;28;20305;-52
2023/09/01 02:48:46;;;;;;;5.30;2.08;;;11.70;99.90;;;;;;5049203;28;20049;-52
2023/09/01 02:51:12;;;;;;;2.50;2.30;;;11.70;99.90;;;;;;5048176;28;20043;-50
2023/09/01 02:53:38;;;;;;;6.47;2.85;;;11.70;99.90;;;;;;5049707;28;20120;-53
2023/09/01 02:56:05;;;;;;;6.05;2.70;;;11.70;99.90;;;;;;5050650;28;20033;-54
2023/09/01 02:58:30;;;;;;;3.92;2.47;;;11.70;99.90;;;;;;5053768;28;20449;-52
2023/09/01 03:00:56;;;;;;;4.38;2.53;;;11.60;99.90;;;;;;5053065;28;20041;-53
2023/09/01 03:03:22;;;;;;;4.68;3.67;;;11.60;99.90;;;;;;5053384;28;20037;-50
2023/09/01 03:05:49;;;;;;;3.70;3.40;;;11.70;99.90;;;;;;5034521;28;20033;-51
2023/09/01 03:08:17;;;;;;;5.65;3.53;;;11.70;99.90;;;;;;5053344;28;20063;-50
2023/09/01 03:10:43;;;;;;;5.55;3.95;;;11.70;99.90;;;;;;5052786;28;20375;-51
2023/09/01 03:13:09;;;;;;;9.80;3.83;;;11.70;99.90;;;;;;5052900;28;20094;-51
2023/09/01 03:15:35;;;;;;;7.30;3.35;;;11.80;99.90;;;;;;5052966;28;20041;-52
2023/09/01 03:18:00;;;;;;;5.95;2.72;;;11.80;99.90;;;;;;5052898;28;20036;-50
2023/09/01 03:20:26;;;;;;;3.28;2.75;;;11.80;99.90;;;;;;5045668;28;20036;-50
2023/09/01 03:22:52;;;;;;;2.83;2.63;;;11.80;99.90;;;;;;5048716;28;20033;-50
2023/09/01 03:25:18;;;;;;;2.90;2.70;;;11.80;99.90;;;;;;5052198;28;20087;-54
2023/09/01 03:27:44;;;;;;;4.07;2.65;;;11.70;99.90;;;;;;5044600;28;20051;-51
2023/09/01 03:30:10;;;;;;;4.80;3.60;;;11.70;99.90;;;;;;5033551;28;20049;-52
2023/09/01 03:32:37;;;;;;;2.50;2.28;;;11.80;99.90;;;;;;5044311;28;20056;-52
2023/09/01 03:35:04;;;;;;;3.90;2.28;;;11.80;99.90;;;;;;5053993;28;20410;-51
2023/09/01 03:37:29;;;;;;;4.43;2.00;;;11.70;99.90;;;;;;5052591;28;20072;-51
2023/09/01 03:39:55;;;;;;;4.15;2.38;;;11.80;99.90;;;;;;5034295;28;20075;-52
2023/09/01 03:42:21;;;;;;;6.32;2.30;;;11.70;99.90;;;;;;5052678;28;20029;-52
2023/09/01 03:44:46;;;;;;;5.40;3.10;;;11.70;99.90;;;;;;5048943;28;20091;-52
2023/09/01 03:47:12;;;;;;;4.53;3.90;;;11.70;99.90;;;;;;5052459;28;20037;-50
2023/09/01 03:49:38;;;;;;;3.70;3.38;;;11.70;99.90;;;;;;5051761;28;20044;-51
2023/09/01 03:52:04;;;;;;;2.67;1.13;;;11.70;99.90;;;;;;5052727;28;20029;-50
2023/09/01 03:54:30;;;;;;;1.75;1.65;;;11.70;99.90;;;;;;5052655;28;20490;-50
2023/09/01 03:56:55;;;;;;;2.63;1.35;;;11.60;99.90;;;;;;5052173;28;20041;-51
2023/09/01 03:59:21;;;;;;;3.22;1.50;;;11.50;99.90;;;;;;5051730;28;20112;-55
2023/09/01 04:01:47;;;;;;;1.77;1.65;;;11.50;99.90;;;;;;5052861;28;20209;-53
2023/09/01 04:04:14;;;;;;;1.60;1.48;;;11.40;99.90;;;;;;5051968;28;20490;-51
2023/09/01 04:06:40;;;;;;;;;;;11.40;99.90;;;;;;5051602;28;20055;-52
2023/09/01 04:09:05;;;;;;;4.22;2.30;;;11.30;99.90;;;;;;5051030;28;19916;-50
2023/09/01 04:11:32;;;;;;;3.92;2.20;;;11.30;99.90;;;;;;5051979;28;20048;-53
2023/09/01 04:13:57;;;;;;;6.57;3.00;;;11.20;99.90;;;;;;5052037;28;20119;-51
2023/09/01 04:16:24;;;;;;;7.28;4.03;;;11.20;99.90;;;;;;5051445;28;20108;-52
2023/09/01 04:18:49;;;;;;;6.45;2.97;;;11.30;99.90;;;;;;5051529;28;20056;-50
2023/09/01 04:21:15;;;;;;;5.38;3.10;;;11.30;99.90;;;;;;5052022;28;20037;-51
2023/09/01 04:23:40;;;;;;;7.25;3.55;;;11.30;99.90;;;;;;5051610;28;20426;-51
2023/09/01 04:26:07;;;;;;;13.13;4.20;;;11.30;99.90;;;;;;5051617;28;20072;-50
2023/09/01 04:28:33;;;;;;;6.43;4.20;;;11.30;99.90;;;;;;5051649;28;20048;-51
2023/09/01 04:31:03;;;;;;;4.72;4.18;;;11.20;99.90;;;;;;5051520;28;20355;-52
2023/09/01 04:33:29;;;;;;;6.15;3.78;;;11.20;99.90;;;;;;5051027;28;21294;-53
2023/09/01 04:35:57;;;;;;;;;;;11.30;99.90;;;;;;5039094;28;20099;-52
2023/09/01 04:38:23;;;;;;;2.10;1.90;;;11.30;99.90;;;;;;5051527;28;19916;-52
2023/09/01 04:40:56;;;;;;;3.67;2.40;;;11.20;99.90;;;;;;5051224;28;20045;-51
2023/09/01 04:43:25;;;;;;;2.95;2.47;;;11.20;99.90;;;;;;5051353;28;20099;-52
2023/09/01 04:45:51;;;;;;;4.82;2.88;;;11.20;99.90;;;;;;5050550;28;20036;-53
2023/09/01 04:48:17;;;;;;;3.58;2.78;;;11.10;99.90;;;;;;5051605;28;20041;-51
2023/09/01 04:50:42;;;;;;;6.53;2.70;;;11.10;99.90;;;;;;5051333;28;20517;-51
2023/09/01 04:53:08;;;;;;;4.83;4.37;;;11.10;99.90;;;;;;5051027;28;20564;-52
2023/09/01 04:55:34;;;;;;;6.43;3.70;;;11.10;99.90;;;;;;5051152;28;20045;-51
2023/09/01 04:58:00;;;;;;;5.03;4.03;;;11.10;99.90;;;;;;5050914;28;20085;-53
2023/09/01 05:00:26;;;;;;;4.22;3.83;;;11.10;99.90;;;;;;5050400;28;20043;-52
2023/09/01 05:02:51;;;;;;;9.73;4.47;;;11.10;99.90;;;;;;5051031;28;20041;-51
2023/09/01 05:05:17;;;;;;;10.15;4.90;;;11.20;99.90;;;;;;5050687;28;20036;-51
2023/09/01 05:07:43;;;;;;;9.25;4.97;;;11.20;99.90;;;;;;5051197;28;20032;-51
2023/09/01 05:10:09;;;;;;;7.22;5.38;;;11.30;99.90;;;;;;5050459;28;20079;-51
2023/09/01 05:12:35;;;;;;;7.90;5.22;;;11.30;99.90;;;;;;5050735;28;20533;-53
2023/09/01 05:15:01;;;;;;;9.65;5.50;;;11.30;99.90;;;;;;5050195;28;20036;-52
2023/09/01 05:17:27;;;;;;;8.63;4.88;;;11.30;99.90;;;;;;5051179;28;20041;-51
2023/09/01 05:19:53;;;;;;;4.82;4.45;;;11.30;99.90;;;;;;5049715;28;20044;-50
2023/09/01 05:22:18;;;;;;;;;;;11.40;99.90;;;;;;5051484;28;20162;-51
2023/09/01 05:24:44;;;;;;;7.35;5.50;;;11.40;99.90;;;;;;5050245;28;19995;-53
2023/09/01 05:27:10;;;;;;;4.57;3.53;;;11.40;99.90;;;;;;5050822;28;20036;-54
2023/09/01 05:29:35;;;;;;;3.70;3.33;;;11.40;99.90;;;;;;5049372;28;20037;-51
2023/09/01 05:32:01;;;;;;;4.03;3.73;;;11.50;99.90;;;;;;5051083;28;20041;-51
2023/09/01 05:34:28;;;;;;;5.72;5.18;;;11.50;99.90;;;;;;5043637;28;20751;-54
2023/09/01 05:36:56;;;;;;;8.10;7.40;;;11.50;99.90;;;;;;5044309;28;20112;-51
2023/09/01 05:39:22;;;;;;;11.90;8.20;;;11.50;99.90;;;;;;5045795;28;20029;-50
2023/09/01 05:41:47;;;;;;;4.60;3.17;;;11.60;99.90;;;;;;5042982;28;20106;-51
2023/09/01 05:44:13;;;;;;;4.13;3.00;;;11.60;99.90;;;;;;5044182;28;20280;-51
2023/09/01 05:46:38;;;;;;;3.92;2.60;;;11.60;99.90;;;;;;5049536;28;20099;-50
2023/09/01 05:49:04;;;;;;;4.43;4.13;;;11.60;99.90;;;;;;5042169;28;20052;-50
2023/09/01 05:51:29;;;;;;;9.03;5.60;;;11.60;99.90;;;;;;5046974;28;20381;-52
2023/09/01 05:53:55;;;;;;;9.55;7.90;;;11.60;99.90;;;;;;5042805;28;20044;-52
2023/09/01 05:56:20;;;;;;;8.95;7.68;;;11.60;99.90;;;;;;5045359;28;20037;-52
2023/09/01 05:58:46;;;;;;;10.90;6.90;;;11.60;99.90;;;;;;5047599;28;20029;-52
2023/09/01 06:01:12;;;;;;;13.15;8.52;;;11.70;99.90;;;;;;5049795;28;20325;-51
2023/09/01 06:03:38;;;;;;;14.93;10.38;;;11.70;99.90;;;;;;5050130;28;20044;-51
2023/09/01 06:06:03;;;;;;;12.02;9.55;;;11.80;99.90;;;;;;5049266;28;20041;-53
2023/09/01 06:08:29;;;;;;;21.73;14.18;;;11.90;99.90;;;;;;5049520;28;20041;-51
2023/09/01 06:11:05;;;;;;;15.45;13.15;;;11.90;99.90;;;;;;5050048;28;20037;-55
2023/09/01 06:13:31;;;;;;;18.55;14.25;;;12.00;99.90;;;;;;5049512;28;20213;-54
2023/09/01 06:15:57;;;;;;;13.98;11.02;;;12.10;99.90;;;;;;5049446;28;20037;-52
2023/09/01 06:18:22;;;;;;;15.68;11.90;;;12.20;99.90;;;;;;5043999;28;20517;-51
2023/09/01 06:20:48;;;;;;;16.48;12.10;;;12.20;99.90;;;;;;5044166;28;20040;-51
2023/09/01 06:23:13;;;;;;;14.07;10.83;;;12.30;99.90;;;;;;5043085;28;20092;-51
2023/09/01 06:25:39;;;;;;;16.93;11.90;;;12.40;99.90;;;;;;5041711;28;20279;-52
2023/09/01 06:28:05;;;;;;;15.97;11.67;;;12.50;99.90;;;;;;5043236;28;20295;-52
2023/09/01 06:30:30;;;;;;;18.65;12.10;;;12.60;99.90;;;;;;5047733;28;20283;-51
2023/09/01 06:32:56;;;;;;;17.48;13.93;;;12.70;99.90;;;;;;5045431;28;20037;-51
2023/09/01 06:35:21;;;;;;;15.65;13.80;;;12.70;99.90;;;;;;5040157;28;20049;-53
2023/09/01 06:37:47;;;;;;;17.58;13.32;;;12.80;99.90;;;;;;5039962;28;20526;-53
2023/09/01 06:40:12;;;;;;;19.08;15.23;;;12.90;99.90;;;;;;5048034;28;20056;-54
2023/09/01 06:42:38;;;;;;;24.25;16.15;;;12.90;99.90;;;;;;5044835;28;20038;-51
2023/09/01 06:45:05;;;;;;;22.35;16.52;;;12.90;99.90;;;;;;5046133;28;20132;-51
2023/09/01 06:47:31;;;;;;;20.45;15.85;;;13.00;99.90;;;;;;5045039;28;20053;-50
2023/09/01 06:49:56;;;;;;;26.55;17.58;;;13.00;99.90;;;;;;5041707;28;20120;-51
2023/09/01 06:52:22;;;;;;;22.17;16.20;;;13.10;99.90;;;;;;5040703;28;20557;-54
2023/09/01 06:54:47;;;;;;;27.02;17.73;;;13.20;99.90;;;;;;5035658;28;20125;-53
2023/09/01 06:57:13;;;;;;;19.85;17.00;;;13.30;99.90;;;;;;5035022;28;20044;-52
2023/09/01 06:59:39;;;;;;;24.02;19.05;;;13.40;99.90;;;;;;5028257;28;20116;-53
2023/09/01 07:02:04;;;;;;;22.85;17.45;;;13.50;99.90;;;;;;5042580;28;20481;-51
2023/09/01 07:04:30;;;;;;;28.53;16.67;;;13.60;99.90;;;;;;5045914;28;20045;-54
2023/09/01 07:06:56;;;;;;;26.65;18.17;;;13.70;99.90;;;;;;5035819;28;20291;-51
2023/09/01 07:09:22;;;;;;;21.77;17.35;;;13.80;99.90;;;;;;5041665;28;20416;-53
2023/09/01 07:11:47;;;;;;;25.10;19.23;;;13.90;99.90;;;;;;5032384;28;20045;-52
2023/09/01 07:14:13;;;;;;;21.67;17.48;;;14.00;99.90;;;;;;5043703;28;20045;-52
2023/09/01 07:16:39;;;;;;;24.55;18.50;;;14.10;99.90;;;;;;5048105;28;20037;-54
2023/09/01 07:19:04;;;;;;;29.38;19.17;;;14.20;99.90;;;;;;5038700;28;20486;-51
2023/09/01 07:21:30;;;;;;;23.27;15.93;;;14.30;99.90;;;;;;5037551;28;20159;-52
2023/09/01 07:23:55;;;;;;;20.83;15.15;;;14.40;99.90;;;;;;5042991;28;20037;-54
2023/09/01 07:26:21;;;;;;;23.23;16.90;;;14.50;99.90;;;;;;5044715;28;20041;-53
2023/09/01 07:28:46;;;;;;;19.63;13.95;;;14.50;99.90;;;;;;5043966;28;20041;-54
2023/09/01 07:31:12;;;;;;;19.10;15.52;;;14.60;99.90;;;;;;5036627;28;20045;-55
2023/09/01 07:33:41;;;;;;;20.48;14.63;;;14.60;99.90;;;;;;5035917;28;20053;-56
2023/09/01 07:36:11;;;;;;;21.52;14.60;;;14.70;99.90;;;;;;5039478;28;20029;-53
2023/09/01 07:38:38;;;;;;;22.00;14.85;;;14.80;99.90;;;;;;5035870;28;20059;-51
2023/09/01 07:41:03;;;;;;;21.45;14.52;;;14.80;99.90;;;;;;5045934;28;20364;-51
2023/09/01 07:43:30;;;;;;;51.17;15.90;;;14.90;99.90;;;;;;5039060;28;20040;-54
2023/09/01 07:45:55;;;;;;;;;;;14.90;99.90;;;;;;5042931;28;20033;-52
2023/09/01 07:48:21;;;;;;;92.03;20.60;;;15.00;99.90;;;;;;5046903;28;20446;-52
2023/09/01 07:50:46;;;;;;;27.35;15.80;;;15.10;99.90;;;;;;5043979;28;20034;-52
2023/09/01 07:53:12;;;;;;;28.60;15.73;;;15.10;99.90;;;;;;5047043;28;20078;-51
2023/09/01 07:55:38;;;;;;;23.35;15.15;;;15.20;99.90;;;;;;5051156;28;20037;-55
2023/09/01 07:58:03;;;;;;;22.48;15.10;;;15.20;99.90;;;;;;5034462;28;20053;-53
2023/09/01 08:00:29;;;;;;;24.63;15.65;;;15.20;99.90;;;;;;5044691;28;20045;-52
2023/09/01 08:02:56;;;;;;;31.65;16.83;;;15.30;99.90;;;;;;5036105;28;20407;-52
2023/09/01 08:05:21;;;;;;;;;;;15.30;99.90;;;;;;5048086;28;20094;-53
2023/09/01 08:07:49;;;;;;;22.98;15.63;;;15.30;99.90;;;;;;5046582;28;19971;-55
2023/09/01 08:10:15;;;;;;;20.67;17.02;;;15.40;99.90;;;;;;5049465;28;20095;-52
2023/09/01 08:12:41;;;;;;;20.52;15.45;;;15.40;99.90;;;;;;5049490;28;20036;-53
2023/09/01 08:15:08;;;;;;;27.13;16.02;;;15.50;99.90;;;;;;5046939;28;20052;-55
2023/09/01 08:17:35;;;;;;;19.98;14.48;;;15.50;99.90;;;;;;5041299;28;20040;-51
2023/09/01 08:20:03;;;;;;;22.27;15.07;;;15.60;99.90;;;;;;5045192;28;20107;-52
2023/09/01 08:22:30;;;;;;;22.52;15.25;;;15.70;99.90;;;;;;5025822;28;20043;-54
2023/09/01 08:24:55;;;;;;;24.27;15.05;;;15.70;99.90;;;;;;5049767;28;20049;-51
2023/09/01 08:27:21;;;;;;;23.13;15.60;;;15.70;99.90;;;;;;5034439;28;20046;-54
2023/09/01 08:29:47;;;;;;;23.33;14.43;;;15.80;99.90;;;;;;5040514;28;20434;-52
2023/09/01 08:32:12;;;;;;;21.75;15.88;;;15.80;99.90;;;;;;5050676;28;20087;-54
2023/09/01 08:34:38;;;;;;;20.60;15.77;;;15.80;99.90;;;;;;5037152;28;20041;-55
2023/09/01 08:37:04;;;;;;;24.90;17.20;;;15.80;99.90;;;;;;5038273;28;20049;-51
2023/09/01 08:39:30;;;;;;;22.67;16.70;;;15.80;99.90;;;;;;5047995;28;20072;-51
2023/09/01 08:41:56;;;;;;;21.75;15.32;;;15.90;99.90;;;;;;5049210;28;20064;-52
2023/09/01 08:44:23;;;;;;;22.95;16.55;;;15.90;99.90;;;;;;5050526;28;20032;-52
2023/09/01 08:46:52;;;;;;;21.95;17.00;;;16.00;99.90;;;;;;5048904;28;20127;-51
2023/09/01 08:49:18;;;;;;;29.20;16.45;;;15.90;99.90;;;;;;5045592;28;20064;-51
2023/09/01 08:51:47;;;;;;;28.02;15.07;;;16.00;99.90;;;;;;5046416;28;20068;-53
2023/09/01 08:54:16;;;;;;;21.48;15.32;;;16.00;99.90;;;;;;5046850;28;20039;-53
2023/09/01 08:56:41;;;;;;;24.60;17.13;;;16.00;99.90;;;;;;5044765;28;20044;-54
2023/09/01 08:59:07;;;;;;;23.60;16.92;;;16.10;99.90;;;;;;5048710;28;20530;-56
2023/09/01 09:01:33;;;;;;;22.83;16.50;;;16.10;99.90;;;;;;5048861;28;20510;-51
2023/09/01 09:03:58;;;;;;;27.15;17.42;;;16.10;99.90;;;;;;5050569;28;20112;-52
2023/09/01 09:06:32;;;;;;;27.45;16.38;;;16.10;99.90;;;;;;5047214;28;20037;-54
2023/09/01 09:09:24;;;;;;;22.48;17.45;;;16.10;99.90;;;;;;5046889;28;20367;-54
2023/09/01 09:11:57;;;;;;;24.17;17.67;;;16.20;99.90;;;;;;5045382;28;20088;-54
2023/09/01 09:14:24;;;;;;;26.85;17.75;;;16.20;99.90;;;;;;5045973;28;20059;-54
2023/09/01 09:16:55;;;;;;;25.80;17.67;;;16.20;99.90;;;;;;5045685;28;20056;-55
2023/09/01 09:19:24;;;;;;;26.00;18.00;;;16.20;99.90;;;;;;5044647;28;20036;-54
2023/09/01 09:22:05;;;;;;;30.10;17.55;;;16.20;99.90;;;;;;5046426;28;20041;-52
2023/09/01 09:24:36;;;;;;;23.92;18.17;;;16.30;99.90;;;;;;5045638;28;20124;-53
2023/09/01 09:27:03;;;;;;;22.90;17.02;;;16.30;99.90;;;;;;5045742;28;20040;-54
2023/09/01 09:29:40;;;;;;;27.05;17.98;;;16.40;99.90;;;;;;5045146;28;20048;-56
2023/09/01 09:32:35;;;;;;;30.63;18.33;;;16.40;99.90;;;;;;5043644;28;20334;-55
2023/09/01 09:35:09;;;;;;;22.52;17.55;;;16.50;99.90;;;;;;4985195;28;20492;-54
2023/09/01 09:37:36;;;;;;;24.20;15.60;;;16.60;99.90;;;;;;4985216;28;20045;-54
2023/09/01 09:40:13;;;;;;;18.05;14.48;;;16.60;99.90;;;;;;4981580;28;20050;-54
2023/09/01 09:42:39;;;;;;;25.65;17.38;;;16.70;99.90;;;;;;4984482;28;20042;-56
2023/09/01 09:45:26;;;;;;;20.67;14.10;;;16.70;99.90;;;;;;4983046;28;20051;-54
2023/09/01 09:47:54;;;;;;;19.23;14.75;;;16.80;99.90;;;;;;4985073;28;20511;-55
2023/09/01 09:50:21;;;;;;;26.00;12.63;;;16.80;99.90;;;;;;4984607;28;20080;-56
2023/09/01 09:52:54;;;;;;;18.48;13.00;;;16.90;99.90;;;;;;4984346;28;20054;-56
2023/09/01 09:55:26;;;;;;;16.67;12.27;;;17.00;99.90;;;;;;4981444;28;20130;-55
2023/09/01 09:57:53;;;;;;;16.92;11.45;;;17.00;99.90;;;;;;4985410;28;20530;-56
2023/09/01 10:00:21;;;;;;;20.65;12.30;;;17.00;99.90;;;;;;4984651;28;20223;-55
2023/09/01 10:02:58;;;;;;;21.65;11.52;;;17.00;99.90;;;;;;4984547;28;20038;-53
2023/09/01 10:05:24;;;;;;;;;;;17.10;99.90;;;;;;4985533;28;20542;-54
2023/09/01 10:07:50;;;;;;;17.63;12.05;;;17.10;99.90;;;;;;4986964;28;19922;-56
2023/09/01 10:10:17;;;;;;;20.73;12.20;;;17.10;99.90;;;;;;4985287;28;20052;-54
2023/09/01 10:12:42;;;;;;;;;;;17.10;99.90;;;;;;5046642;28;20037;-57
2023/09/01 10:15:11;;;;;;;20.92;11.55;;;17.10;99.90;;;;;;5047214;28;21018;-54
2023/09/01 10:17:38;;;;;;;18.40;10.77;;;17.10;99.90;;;;;;5046432;28;20524;-55
2023/09/01 10:20:07;;;;;;;17.65;11.50;;;17.10;99.90;;;;;;5028528;28;20044;-54
2023/09/01 10:22:38;;;;;;;16.10;8.95;;;17.10;99.90;;;;;;5046539;28;20502;-57
2023/09/01 10:25:19;;;;;;;19.67;10.00;;;17.10;99.90;;;;;;5046123;28;20059;-54
2023/09/01 10:28:05;;;;;;;12.90;8.02;;;17.10;99.90;;;;;;5048147;28;20072;-56
2023/09/01 10:30:35;;;;;;;16.85;9.80;;;17.10;99.90;;;;;;5042578;28;20052;-55
2023/09/01 10:33:08;;;;;;;15.80;10.80;;;17.00;99.90;;;;;;5044365;28;20060;-55
2023/09/01 10:35:48;;;;;;;19.60;9.95;;;17.00;99.90;;;;;;5046361;28;20041;-55
2023/09/01 10:38:15;;;;;;;18.25;10.18;;;17.00;99.90;;;;;;5047268;28;20075;-55
2023/09/01 10:40:48;;;;;;;19.02;9.70;;;17.00;99.90;;;;;;5047171;28;20264;-55
2023/09/01 10:43:33;;;;;;;13.18;10.43;;;16.90;99.90;;;;;;5047730;28;20033;-53
2023/09/01 10:48:52;;;;;;;17.83;9.10;;;16.90;99.90;;;;;;5046737;28;20037;-55
2023/09/01 10:51:18;;;;;;;16.15;10.60;;;16.90;99.90;;;;;;5047560;28;20033;-55
2023/09/01 10:53:45;;;;;;;15.10;9.68;;;17.00;99.90;;;;;;5047357;28;20033;-55
2023/09/01 10:56:17;;;;;;;17.42;10.38;;;17.00;99.90;;;;;;5044866;28;20091;-55
2023/09/01 10:58:50;;;;;;;16.83;10.90;;;17.00;99.90;;;;;;5045407;28;20116;-52
2023/09/01 11:01:25;;;;;;;23.38;10.43;;;17.00;99.90;;;;;;5045375;28;20033;-56
2023/09/01 11:03:51;;;;;;;18.35;10.60;;;17.00;99.90;;;;;;5046201;28;20044;-53
2023/09/01 11:06:17;;;;;;;22.02;10.95;;;17.10;99.90;;;;;;5046947;28;20049;-53
2023/09/01 11:09:00;;;;;;;22.10;10.70;;;17.10;99.90;;;;;;5047282;28;20124;-56
2023/09/01 11:11:26;;;;;;;20.23;11.98;;;17.10;99.90;;;;;;5044532;28;20403;-54
2023/09/01 11:14:01;;;;;;;18.67;12.25;;;17.10;99.90;;;;;;5047598;28;20045;-54
2023/09/01 11:16:27;;;;;;;17.58;11.18;;;17.10;99.90;;;;;;5045026;28;20508;-53
2023/09/01 11:19:02;;;;;;;19.60;10.88;;;17.20;99.90;;;;;;5049464;28;20111;-56
2023/09/01 11:21:29;;;;;;;18.52;10.75;;;17.20;99.90;;;;;;5048015;28;20052;-56
2023/09/01 11:24:01;;;;;;;20.92;11.13;;;17.20;99.90;;;;;;5050403;28;20037;-55
2023/09/01 11:26:26;;;;;;;23.08;11.55;;;17.20;99.90;;;;;;5051318;28;20067;-55
2023/09/01 11:28:53;;;;;;;19.38;11.80;;;17.20;99.90;;;;;;5050806;28;20064;-56
2023/09/01 11:31:19;;;;;;;20.63;11.98;;;17.30;99.90;;;;;;5051828;28;20040;-55
2023/09/01 11:33:52;;;;;;;20.02;12.07;;;17.30;99.90;;;;;;5050019;28;20037;-53
2023/09/01 11:36:18;;;;;;;22.58;11.40;;;17.30;99.90;;;;;;5047216;28;20064;-54
2023/09/01 11:38:44;;;;;;;20.25;11.60;;;17.30;99.90;;;;;;5049975;28;20041;-56
2023/09/01 11:41:14;;;;;;;16.58;9.95;;;17.40;99.90;;;;;;5050434;28;20461;-56
2023/09/01 11:43:41;;;;;;;16.13;10.73;;;17.40;99.90;;;;;;5048297;28;20077;-55
2023/09/01 11:46:07;;;;;;;20.35;10.98;;;17.50;99.90;;;;;;5046237;28;20037;-55
2023/09/01 11:48:33;;;;;;;18.20;10.27;;;17.50;99.90;;;;;;5048151;28;20525;-54
2023/09/01 11:50:58;;;;;;;18.10;10.88;;;17.50;99.90;;;;;;5047130;28;20055;-56
2023/09/01 11:53:28;;;;;;;16.25;10.93;;;17.60;99.90;;;;;;5046196;28;20035;-56
2023/09/01 11:55:58;;;;;;;16.50;9.30;;;17.60;99.90;;;;;;5047744;28;20041;-54
2023/09/01 11:58:45;;;;;;;15.35;9.38;;;17.60;99.90;;;;;;5043449;28;20037;-52
2023/09/01 12:01:11;;;;;;;19.83;10.23;;;17.60;99.90;;;;;;5030830;28;20037;-56
2023/09/01 12:03:40;;;;;;;14.77;9.25;;;17.60;99.90;;;;;;5047092;28;20449;-56
2023/09/01 12:06:24;;;;;;;14.68;9.95;;;17.60;99.90;;;;;;5048455;28;20029;-55
2023/09/01 12:08:53;;;;;;;17.27;8.55;;;17.70;99.90;;;;;;5048102;28;20033;-52
2023/09/01 12:11:19;;;;;;;19.08;9.02;;;17.70;99.90;;;;;;5046066;28;20061;-56
2023/09/01 12:13:47;;;;;;;;;;;17.70;99.90;;;;;;5047110;28;20091;-56
2023/09/01 12:16:23;;;;;;;19.45;9.43;;;17.80;99.90;;;;;;5043639;28;20324;-55
2023/09/01 12:18:51;;;;;;;20.90;10.25;;;17.80;99.90;;;;;;5040122;28;20041;-54
2023/09/01 12:21:16;;;;;;;15.10;9.52;;;17.80;99.90;;;;;;5044342;28;20048;-55
2023/09/01 12:23:44;;;;;;;17.85;8.32;;;17.90;99.90;;;;;;5045383;28;20094;-54
2023/09/01 12:26:11;;;;;;;15.50;8.63;;;18.00;99.90;;;;;;5047167;28;20826;-53
2023/09/01 12:28:38;;;;;;;17.65;8.15;;;18.00;99.90;;;;;;5043509;28;20036;-56
2023/09/01 12:31:06;;;;;;;10.02;7.65;;;18.10;99.90;;;;;;5048744;28;20062;-56
2023/09/01 12:33:32;;;;;;;11.20;7.38;;;18.10;99.90;;;;;;5047609;28;20055;-55
2023/09/01 12:35:58;;;;;;;13.88;7.78;;;18.10;99.90;;;;;;5046162;28;20033;-56
2023/09/01 12:38:25;;;;;;;10.93;5.95;;;18.10;99.90;;;;;;5043731;28;20063;-56
2023/09/01 12:40:52;;;;;;;;;;;18.10;99.90;;;;;;5048086;28;20029;-54
2023/09/01 12:43:18;;;;;;;14.70;7.28;;;18.10;99.90;;;;;;5045438;28;19920;-57
2023/09/01 12:45:43;;;;;;;12.00;7.68;;;18.10;99.90;;;;;;5047544;28;20033;-56